Time;durP1;ratioP1;P1;durP2;ratioP2;P2;SDS_P1;SDS_P2;PMS_P1;PMS_P2;Temp;Humidity;BMP_temperature;BMP_pressure;BME280_temperature;BME280_humidity;BME280_pressure;Samples;Min_cycle;Max_cycle;Signal;HPM_P1;HPM_P2
2022/08/07 00:01:30;;;;;;;4.42;4.03;;;;;;;28.29;44.71;100395.77;1771338;80;21439;-84
2022/08/07 00:03:56;;;;;;;4.50;4.10;;;;;;;28.28;44.69;100398.34;1741339;79;21060;-84
2022/08/07 00:06:23;;;;;;;4.30;3.60;;;;;;;28.29;44.71;100398.56;1771640;80;21545;-84
2022/08/07 00:08:49;;;;;;;3.85;3.45;;;;;;;28.30;44.73;100400.77;1771537;81;21009;-84
2022/08/07 00:11:16;;;;;;;4.97;3.40;;;;;;;28.28;44.73;100396.95;1771214;79;21080;-84
2022/08/07 00:13:44;;;;;;;4.30;3.90;;;;;;;28.28;44.72;100399.75;1771498;81;21632;-84
2022/08/07 00:16:12;;;;;;;4.28;3.85;;;;;;;28.28;44.72;100392.75;1771413;80;21435;-84
2022/08/07 00:18:38;;;;;;;4.30;3.72;;;;;;;28.28;44.72;100389.95;1771378;81;21435;-84
2022/08/07 00:21:06;;;;;;;4.42;4.03;;;;;;;28.28;44.70;100394.73;1771671;81;21479;-84
2022/08/07 00:23:34;;;;;;;4.97;4.05;;;;;;;28.28;44.72;100391.35;1771826;79;21574;-85
2022/08/07 00:26:02;;;;;;;4.47;4.08;;;;;;;28.29;44.73;100399.16;1771455;81;21017;-84
2022/08/07 00:28:29;;;;;;;4.25;3.85;;;;;;;28.28;44.72;100397.54;1771809;81;21099;-85
2022/08/07 00:30:56;;;;;;;4.35;3.58;;;;;;;28.28;44.72;100396.95;1752512;80;21064;-85
2022/08/07 00:33:27;;;;;;;4.05;3.65;;;;;;;28.29;44.70;100401.95;1765767;79;21021;-85
2022/08/07 00:35:51;;;;;;;4.05;3.65;;;;;;;28.28;44.70;100398.34;1765276;79;21126;-84
2022/08/07 00:38:18;;;;;;;4.50;4.00;;;;;;;28.29;44.73;100401.95;1765876;79;21057;-84
2022/08/07 00:40:44;;;;;;;4.08;3.67;;;;;;;28.28;44.73;100399.75;1765636;79;21072;-84
2022/08/07 00:43:11;;;;;;;4.22;3.83;;;;;;;28.29;44.75;100400.55;1765773;79;21488;-84
2022/08/07 00:45:39;;;;;;;4.10;3.70;;;;;;;28.29;44.75;100401.95;1766189;79;21006;-84
2022/08/07 00:48:06;;;;;;;4.83;3.92;;;;;;;28.28;44.74;100398.34;1765615;79;22027;-84
2022/08/07 00:50:32;;;;;;;3.98;3.52;;;;;;;28.28;44.76;100402.55;1765877;80;20965;-84
2022/08/07 00:52:59;;;;;;;4.15;3.75;;;;;;;28.28;44.75;100396.14;1766086;79;21552;-84
2022/08/07 00:55:26;;;;;;;4.35;3.80;;;;;;;28.28;44.75;100400.34;1765794;79;20994;-84
2022/08/07 00:57:52;;;;;;;4.25;3.85;;;;;;;28.28;44.75;100403.13;1765757;79;21448;-83
2022/08/07 01:00:19;;;;;;;4.10;3.55;;;;;;;28.28;44.75;100404.53;1765861;79;21117;-84
2022/08/07 01:02:45;;;;;;;4.47;4.08;;;;;;;28.28;44.78;100403.94;1765322;79;21008;-83
2022/08/07 01:05:12;;;;;;;3.92;3.52;;;;;;;28.28;44.78;100396.95;1765760;79;20990;-84
2022/08/07 01:07:39;;;;;;;4.45;4.05;;;;;;;28.28;44.79;100403.94;1765716;81;21105;-84
2022/08/07 01:10:07;;;;;;;4.37;3.98;;;;;;;28.28;44.80;100403.94;1765311;81;21073;-83
2022/08/07 01:12:33;;;;;;;4.87;3.90;;;;;;;28.27;44.80;100405.71;1765701;81;21555;-83
2022/08/07 01:15:00;;;;;;;4.25;3.80;;;;;;;28.29;44.80;100407.55;1765661;81;21046;-83
2022/08/07 01:17:27;;;;;;;4.75;3.80;;;;;;;28.28;44.81;100403.13;1765416;81;21257;-83
2022/08/07 01:19:59;;;;;;;4.33;3.92;;;;;;;28.28;44.82;100408.14;1765720;81;21058;-84
2022/08/07 01:22:25;;;;;;;4.30;3.90;;;;;;;28.28;44.80;100410.13;1765949;79;21132;-83
2022/08/07 01:24:52;;;;;;;4.67;3.72;;;;;;;28.28;44.80;100411.52;1746023;81;21845;-84
2022/08/07 01:27:18;;;;;;;4.55;3.75;;;;;;;28.28;44.82;100406.73;1766149;81;21129;-84
2022/08/07 01:29:45;;;;;;;4.17;3.65;;;;;;;28.27;44.82;100394.52;1766085;81;21030;-83
2022/08/07 01:32:11;;;;;;;4.85;4.30;;;;;;;28.27;44.82;100401.52;1754641;81;21069;-83
2022/08/07 01:34:38;;;;;;;4.80;4.35;;;;;;;28.27;44.82;100404.31;1744363;80;21077;-84
2022/08/07 01:37:04;;;;;;;4.78;4.00;;;;;;;28.27;44.81;100403.72;1744471;80;21148;-83
2022/08/07 01:39:31;;;;;;;3.83;3.40;;;;;;;28.28;44.83;100404.53;1744329;80;21049;-83
2022/08/07 01:41:57;;;;;;;4.42;3.72;;;;;;;28.27;44.85;100402.91;1731485;81;21074;-84
2022/08/07 01:44:24;;;;;;;4.20;3.77;;;;;;;28.27;44.83;100401.52;1731490;81;21041;-83
2022/08/07 01:46:50;;;;;;;4.12;3.72;;;;;;;28.27;44.83;100407.11;1731049;82;21112;-84
2022/08/07 01:49:17;;;;;;;4.35;3.98;;;;;;;28.28;44.86;100401.73;1731374;82;21084;-83
2022/08/07 01:51:43;;;;;;;4.40;3.85;;;;;;;28.28;44.86;100401.73;1731398;81;21036;-82
2022/08/07 01:54:10;;;;;;;4.75;3.90;;;;;;;28.27;44.87;100394.52;1685779;82;21625;-83
2022/08/07 01:57:03;;;;;;;4.00;3.47;;;;;;;28.27;44.87;100397.31;1731369;82;21093;-83
2022/08/07 01:59:34;;;;;;;4.40;3.85;;;;;;;28.28;44.87;100396.14;1731116;81;21029;-83
2022/08/07 02:02:14;;;;;;;4.47;4.08;;;;;;;28.26;44.87;100397.13;1731339;82;21053;-83
2022/08/07 02:04:45;;;;;;;4.03;3.65;;;;;;;28.26;44.87;100404.93;1731468;82;21037;-84
2022/08/07 02:07:11;;;;;;;4.70;3.92;;;;;;;28.26;44.89;100411.92;1731106;82;21265;-83
2022/08/07 02:09:40;;;;;;;5.85;3.72;;;;;;;28.26;44.92;100410.52;1710622;82;21115;-83
2022/08/07 02:12:16;;;;;;;4.47;4.08;;;;;;;28.26;44.94;100406.92;1731143;82;21095;-83
2022/08/07 02:14:49;;;;;;;4.45;4.05;;;;;;;28.26;44.94;100409.13;1731291;81;21049;-83
2022/08/07 02:17:15;;;;;;;4.95;3.77;;;;;;;28.25;44.96;100407.51;1731064;82;21112;-84
2022/08/07 02:19:44;;;;;;;4.42;4.03;;;;;;;28.25;44.96;100410.30;1731263;81;20998;-83
2022/08/07 02:22:12;;;;;;;4.58;3.95;;;;;;;28.26;44.99;100412.52;1731342;81;21066;-84
2022/08/07 02:24:43;;;;;;;5.00;4.08;;;;;;;28.26;45.00;100413.91;1731049;81;21018;-83
2022/08/07 02:27:11;;;;;;;4.50;3.83;;;;;;;28.26;45.01;100413.91;1731398;81;21749;-83
2022/08/07 02:29:38;;;;;;;6.62;4.25;;;;;;;28.26;45.00;100419.50;1731536;81;21034;-84
2022/08/07 02:32:04;;;;;;;4.60;4.15;;;;;;;28.25;45.02;100416.48;1731005;81;21084;-84
2022/08/07 02:34:31;;;;;;;4.65;4.00;;;;;;;28.25;45.02;100411.70;1731148;81;21137;-83
2022/08/07 02:36:57;;;;;;;4.50;4.10;;;;;;;28.26;45.03;100416.70;1731295;82;21089;-83
2022/08/07 02:39:25;;;;;;;4.12;3.72;;;;;;;28.26;45.03;100418.11;1730991;81;21660;-83
2022/08/07 02:41:51;;;;;;;4.30;3.90;;;;;;;28.25;45.06;100419.28;1731233;81;21034;-83
2022/08/07 02:44:18;;;;;;;4.55;3.87;;;;;;;28.25;45.03;100420.09;1731072;82;21524;-83
2022/08/07 02:46:46;;;;;;;4.40;4.00;;;;;;;28.25;45.06;100417.89;1728894;82;21093;-83
2022/08/07 02:49:13;;;;;;;3.90;3.50;;;;;;;28.25;45.08;100427.09;1731382;81;21062;-83
2022/08/07 02:51:39;;;;;;;4.47;4.08;;;;;;;28.25;45.08;100424.30;1731449;81;21486;-83
2022/08/07 02:54:06;;;;;;;4.85;4.12;;;;;;;28.25;45.06;100425.69;1731108;81;21476;-83
2022/08/07 02:56:33;;;;;;;4.12;3.72;;;;;;;28.25;45.08;100419.28;1732953;81;20979;-83
2022/08/07 02:59:02;;;;;;;5.10;4.45;;;;;;;28.25;45.11;100417.89;1733648;81;21039;-83
2022/08/07 03:01:28;;;;;;;5.25;4.75;;;;;;;28.25;45.12;100417.89;1722977;82;21047;-83
2022/08/07 03:03:55;;;;;;;4.10;3.67;;;;;;;28.25;45.12;100422.89;1749465;80;21077;-83
2022/08/07 03:06:21;;;;;;;4.30;3.90;;;;;;;28.25;45.13;100423.48;1755348;80;21023;-83
2022/08/07 03:08:48;;;;;;;4.08;3.65;;;;;;;28.26;45.12;100430.70;1749200;80;21031;-83
2022/08/07 03:11:15;;;;;;;5.62;4.10;;;;;;;28.26;45.13;100437.69;1749452;80;21086;-84
2022/08/07 03:13:41;;;;;;;4.35;3.95;;;;;;;28.25;45.14;100436.88;1730454;81;20999;-83
2022/08/07 03:16:08;;;;;;;4.83;4.33;;;;;;;28.25;45.14;100438.28;1749300;81;21096;-83
2022/08/07 03:18:34;;;;;;;4.95;4.10;;;;;;;28.26;45.14;100437.69;1749500;82;21004;-83
2022/08/07 03:21:03;;;;;;;4.90;3.77;;;;;;;28.25;45.13;100441.08;1749482;80;21423;-83
2022/08/07 03:23:30;;;;;;;4.65;4.00;;;;;;;28.24;45.14;100445.05;1749139;80;21007;-83
2022/08/07 03:25:56;;;;;;;4.45;3.75;;;;;;;28.25;45.14;100444.47;1755514;80;21066;-83
2022/08/07 03:28:29;;;;;;;4.75;3.42;;;;;;;28.26;45.14;100448.88;1731094;81;21178;-83
2022/08/07 03:31:17;;;;;;;4.40;4.00;;;;;;;28.25;45.16;100438.88;1756435;80;21386;-84
2022/08/07 03:33:24;;;;;;;4.30;3.90;;;;;;;28.25;45.18;100443.06;1774957;80;21024;-84
2022/08/07 03:35:51;;;;;;;4.00;3.60;;;;;;;28.25;45.15;100444.47;1781226;79;21013;-84
2022/08/07 03:38:17;;;;;;;4.42;4.03;;;;;;;28.26;45.17;100441.89;1780709;80;21075;-83
2022/08/07 03:40:44;;;;;;;4.83;4.28;;;;;;;28.25;45.16;100445.27;1778388;79;21008;-83
2022/08/07 03:43:11;;;;;;;5.10;4.05;;;;;;;28.26;45.18;100453.08;1780893;80;21039;-83
2022/08/07 03:45:37;;;;;;;5.72;4.45;;;;;;;28.25;45.19;100441.67;1780751;80;21043;-83
2022/08/07 03:48:04;;;;;;;4.37;3.98;;;;;;;28.25;45.16;100442.48;1781074;80;21071;-83
2022/08/07 03:50:30;;;;;;;4.30;3.90;;;;;;;28.25;45.19;100451.45;1780994;80;21056;-83
2022/08/07 03:52:58;;;;;;;4.53;3.98;;;;;;;28.25;45.18;100442.48;1780850;80;21094;-83
2022/08/07 03:55:27;;;;;;;4.90;4.40;;;;;;;28.24;45.18;100442.84;1781027;79;21553;-83
2022/08/07 03:57:53;;;;;;;4.17;3.77;;;;;;;28.25;45.19;100447.27;1781129;80;21123;-83
2022/08/07 04:00:26;;;;;;;4.40;4.00;;;;;;;28.25;45.21;100450.06;1752513;80;21064;-82
2022/08/07 04:02:52;;;;;;;4.17;3.77;;;;;;;28.25;45.19;100445.27;1781117;80;20991;-83
2022/08/07 04:05:20;;;;;;;5.08;3.98;;;;;;;28.25;45.19;100449.47;1780980;80;21036;-83
2022/08/07 04:07:47;;;;;;;5.55;3.72;;;;;;;28.25;45.20;100455.66;1780738;79;21588;-83
2022/08/07 04:10:14;;;;;;;4.85;4.08;;;;;;;28.25;45.20;100455.06;1781202;80;21609;-83
2022/08/07 04:12:40;;;;;;;4.45;3.98;;;;;;;28.25;45.22;100455.66;1780957;80;21052;-84
2022/08/07 04:15:08;;;;;;;4.65;4.00;;;;;;;28.25;45.22;100454.25;1780831;80;21039;-83
2022/08/07 04:17:35;;;;;;;4.58;4.17;;;;;;;28.24;45.22;100453.44;1781114;80;21064;-83
2022/08/07 04:20:01;;;;;;;4.45;4.05;;;;;;;28.25;45.20;100455.66;1752817;80;21036;-83
2022/08/07 04:22:28;;;;;;;4.87;4.20;;;;;;;28.26;45.20;100460.07;1780869;80;21579;-83
2022/08/07 04:24:56;;;;;;;4.72;4.33;;;;;;;28.26;45.20;100469.86;1781116;79;21039;-83
2022/08/07 04:27:22;;;;;;;4.85;4.10;;;;;;;28.26;45.19;100465.67;1781086;80;21044;-84
2022/08/07 04:29:49;;;;;;;4.80;4.30;;;;;;;28.25;45.19;100470.45;1780960;80;21164;-84
2022/08/07 04:32:16;;;;;;;4.45;4.00;;;;;;;28.26;45.20;100476.27;1781082;79;21306;-83
2022/08/07 04:34:42;;;;;;;4.40;3.83;;;;;;;28.26;45.18;100474.06;1775628;80;21028;-84
2022/08/07 04:37:08;;;;;;;4.10;3.70;;;;;;;28.26;45.18;100477.67;1774616;79;21298;-83
2022/08/07 04:39:35;;;;;;;4.17;3.77;;;;;;;28.26;45.20;100476.27;1774678;80;21032;-83
2022/08/07 04:42:02;;;;;;;5.58;4.35;;;;;;;28.27;45.18;100480.66;1774718;80;21285;-84
2022/08/07 04:44:29;;;;;;;4.87;3.98;;;;;;;28.28;45.17;100482.87;1752628;80;21018;-83
2022/08/07 04:47:16;;;;;;;4.20;3.80;;;;;;;28.27;45.18;100478.45;1744048;80;21330;-83
2022/08/07 04:49:50;;;;;;;4.53;3.83;;;;;;;28.27;45.17;100482.05;1735132;80;21007;-84
2022/08/07 04:52:55;;;;;;;4.20;3.80;;;;;;;28.27;45.16;100487.66;1712280;83;21038;-84
2022/08/07 04:55:59;;;;;;;4.78;4.28;;;;;;;28.27;45.15;100481.25;1719844;82;21213;-84
2022/08/07 04:58:42;;;;;;;3.92;3.58;;;;;;;28.27;45.14;100491.03;1721383;82;21107;-84
2022/08/07 05:01:26;;;;;;;5.15;4.08;;;;;;;28.27;45.13;100488.23;1721450;82;21444;-84
2022/08/07 05:04:36;;;;;;;4.37;3.95;;;;;;;28.26;45.15;100494.45;1721732;82;21074;-84
2022/08/07 05:07:26;;;;;;;4.22;3.83;;;;;;;28.26;45.17;100493.05;1721423;82;21050;-84
2022/08/07 05:10:03;;;;;;;4.72;3.98;;;;;;;28.25;45.16;100483.63;1721751;82;21890;-84
2022/08/07 05:12:45;;;;;;;5.55;3.72;;;;;;;28.26;45.17;100489.45;1721036;83;21031;-83
2022/08/07 05:15:18;;;;;;;4.78;3.80;;;;;;;28.25;45.18;100490.63;1692419;83;21032;-84
2022/08/07 05:17:58;;;;;;;5.20;4.08;;;;;;;28.25;45.19;100494.23;1744176;80;21008;-84
2022/08/07 05:20:28;;;;;;;4.08;3.60;;;;;;;28.25;45.15;100492.83;1745856;80;21553;-84
2022/08/07 05:22:58;;;;;;;4.62;4.15;;;;;;;28.26;45.18;100496.44;1746802;81;21528;-83
2022/08/07 05:25:25;;;;;;;4.37;3.98;;;;;;;28.26;45.18;100497.84;1746884;80;21094;-83
2022/08/07 05:27:51;;;;;;;3.70;3.30;;;;;;;28.26;45.18;100490.84;1737968;81;21047;-84
2022/08/07 05:30:18;;;;;;;4.58;4.00;;;;;;;28.27;45.17;100491.03;1746420;80;21137;-84
2022/08/07 05:32:46;;;;;;;4.12;3.70;;;;;;;28.27;45.19;100499.42;1746977;80;20940;-83
2022/08/07 05:35:12;;;;;;;4.15;3.75;;;;;;;28.28;45.19;100498.25;1746724;80;21070;-83
2022/08/07 05:37:39;;;;;;;4.22;3.83;;;;;;;28.28;45.18;100497.66;1763235;81;22214;-84
2022/08/07 05:40:08;;;;;;;4.17;3.70;;;;;;;28.29;45.19;100497.08;1747084;80;21050;-84
2022/08/07 05:42:34;;;;;;;4.20;3.80;;;;;;;28.29;45.18;100498.48;1746936;80;21066;-83
2022/08/07 05:45:01;;;;;;;4.33;3.92;;;;;;;28.30;45.18;100498.70;1746736;80;21114;-83
2022/08/07 05:47:27;;;;;;;3.98;3.58;;;;;;;28.30;45.19;100501.50;1746920;80;21784;-83
2022/08/07 05:49:54;;;;;;;4.33;3.92;;;;;;;28.30;45.16;100504.30;1746922;81;21058;-83
2022/08/07 05:52:21;;;;;;;3.83;3.42;;;;;;;28.31;45.16;100502.50;1746546;80;21047;-83
2022/08/07 05:54:47;;;;;;;4.33;3.92;;;;;;;28.31;45.13;100508.68;1746776;81;21074;-83
2022/08/07 05:57:14;;;;;;;4.22;3.83;;;;;;;28.31;45.11;100503.08;1725557;82;21032;-83
2022/08/07 05:59:41;;;;;;;4.42;4.03;;;;;;;28.32;45.11;100511.70;1744104;81;21109;-83
2022/08/07 06:02:08;;;;;;;4.90;4.03;;;;;;;28.32;45.12;100513.09;1744128;81;21024;-83
2022/08/07 06:04:37;;;;;;;6.12;3.83;;;;;;;28.32;45.10;100512.51;1744289;82;20997;-83
2022/08/07 06:07:04;;;;;;;4.75;4.12;;;;;;;28.33;45.12;100518.33;1744033;80;21041;-84
2022/08/07 06:09:31;;;;;;;4.45;3.95;;;;;;;28.33;45.11;100522.52;1744182;82;21039;-83
2022/08/07 06:11:58;;;;;;;4.45;4.03;;;;;;;28.34;45.11;100519.14;1744141;80;21136;-83
2022/08/07 06:14:25;;;;;;;5.15;4.65;;;;;;;28.34;45.12;100525.55;1743781;82;21044;-83
2022/08/07 06:16:51;;;;;;;5.35;4.20;;;;;;;28.33;45.11;100523.92;1744244;81;21083;-83
2022/08/07 06:19:18;;;;;;;4.50;4.10;;;;;;;28.34;45.11;100519.14;1744161;81;21056;-83
2022/08/07 06:21:47;;;;;;;4.58;4.00;;;;;;;28.34;45.11;100520.53;1743825;80;21020;-84
2022/08/07 06:24:14;;;;;;;5.30;3.95;;;;;;;28.34;45.09;100517.15;1744183;82;21312;-83
2022/08/07 06:26:41;;;;;;;4.80;4.40;;;;;;;28.35;45.10;100515.13;1744192;80;21107;-84
2022/08/07 06:29:08;;;;;;;4.20;3.80;;;;;;;28.36;45.08;100518.16;1743927;81;21016;-83
2022/08/07 06:31:34;;;;;;;4.67;4.20;;;;;;;28.36;45.08;100519.55;1764412;80;21024;-83
2022/08/07 06:34:01;;;;;;;4.53;4.12;;;;;;;28.35;45.12;100517.34;1774659;80;21589;-83
2022/08/07 06:36:27;;;;;;;4.12;3.72;;;;;;;28.35;45.10;100517.34;1774527;80;21596;-83
2022/08/07 06:38:54;;;;;;;4.50;4.03;;;;;;;28.36;45.09;100519.55;1774944;79;21044;-83
2022/08/07 06:41:34;;;;;;;3.90;3.50;;;;;;;28.36;45.09;100518.97;1774583;80;21059;-83
2022/08/07 06:44:01;;;;;;;4.10;3.70;;;;;;;28.37;45.07;100525.37;1774524;80;21040;-84
2022/08/07 06:46:27;;;;;;;4.80;4.28;;;;;;;28.37;45.05;100528.17;1774938;80;21052;-84
2022/08/07 06:48:54;;;;;;;4.75;4.15;;;;;;;28.37;45.03;100530.97;1780999;80;21602;-83
2022/08/07 06:51:24;;;;;;;4.35;3.95;;;;;;;28.37;45.00;100526.18;1774538;80;21118;-83
2022/08/07 06:53:51;;;;;;;4.85;4.12;;;;;;;28.38;44.99;100533.98;1774750;80;21052;-83
2022/08/07 06:56:38;;;;;;;4.72;4.30;;;;;;;28.38;45.00;100531.19;1774769;80;21056;-83
2022/08/07 06:58:46;;;;;;;4.37;3.98;;;;;;;28.38;45.02;100528.39;1771361;80;21542;-84
2022/08/07 07:01:12;;;;;;;4.92;4.05;;;;;;;28.39;45.04;100529.39;1774653;80;20890;-83
2022/08/07 07:03:40;;;;;;;4.83;4.33;;;;;;;28.39;45.04;100532.19;1774546;79;21040;-84
2022/08/07 07:06:09;;;;;;;4.80;4.30;;;;;;;28.39;45.05;100528.00;1774406;79;21083;-83
2022/08/07 07:08:36;;;;;;;4.08;3.67;;;;;;;28.39;45.06;100537.01;1774648;80;21641;-84
2022/08/07 07:11:03;;;;;;;4.97;4.22;;;;;;;28.39;45.07;100534.98;1774895;80;21055;-84
2022/08/07 07:13:40;;;;;;;4.22;3.83;;;;;;;28.39;45.07;100536.39;1774494;80;21272;-84
2022/08/07 07:16:16;;;;;;;4.05;3.65;;;;;;;28.40;45.10;100532.41;1774658;80;21060;-84
2022/08/07 07:18:53;;;;;;;4.20;3.80;;;;;;;28.40;45.10;100536.61;1774651;80;21083;-84
2022/08/07 07:21:24;;;;;;;4.40;3.90;;;;;;;28.41;45.08;100543.83;1775003;80;21045;-84
2022/08/07 07:23:51;;;;;;;4.33;3.92;;;;;;;28.39;45.08;100544.78;1774564;80;21025;-83
2022/08/07 07:26:18;;;;;;;3.60;3.30;;;;;;;28.41;45.08;100547.22;1774812;80;21076;-83
2022/08/07 07:28:55;;;;;;;4.20;3.80;;;;;;;28.40;45.08;100547.80;1774672;79;21036;-83
2022/08/07 07:31:31;;;;;;;4.20;3.80;;;;;;;28.41;45.08;100552.22;1774619;79;21012;-84
2022/08/07 07:34:02;;;;;;;4.25;3.83;;;;;;;28.42;45.10;100551.05;1774791;80;21037;-84
2022/08/07 07:36:29;;;;;;;5.00;4.50;;;;;;;28.42;45.10;100555.24;1780408;80;21020;-83
2022/08/07 07:38:55;;;;;;;4.50;4.10;;;;;;;28.42;45.10;100557.23;1774911;80;21591;-83
2022/08/07 07:41:22;;;;;;;4.97;4.50;;;;;;;28.42;45.10;100561.43;1774682;80;21604;-83
2022/08/07 07:43:50;;;;;;;4.58;4.03;;;;;;;28.42;45.11;100563.64;1774451;80;21083;-83
2022/08/07 07:46:17;;;;;;;4.47;4.08;;;;;;;28.42;45.10;100564.23;1774872;80;21565;-84
2022/08/07 07:48:50;;;;;;;5.08;4.58;;;;;;;28.44;45.09;100561.84;1774590;80;21068;-84
2022/08/07 07:51:17;;;;;;;4.65;4.17;;;;;;;28.43;45.09;100568.03;1774658;80;21068;-83
2022/08/07 07:53:45;;;;;;;4.87;4.37;;;;;;;28.42;45.09;100560.84;1774718;80;21005;-83
2022/08/07 07:56:12;;;;;;;5.03;4.22;;;;;;;28.44;45.08;100567.44;1774699;80;21035;-83
2022/08/07 07:58:39;;;;;;;4.65;4.20;;;;;;;28.45;45.08;100574.66;1774842;80;21099;-84
2022/08/07 08:01:06;;;;;;;5.10;4.20;;;;;;;28.45;45.07;100569.06;1775039;79;21052;-83
2022/08/07 08:03:35;;;;;;;4.92;4.42;;;;;;;28.45;45.07;100566.27;1774804;80;21913;-84
2022/08/07 08:06:01;;;;;;;5.37;4.55;;;;;;;28.46;45.07;100566.48;1774433;80;21427;-83
2022/08/07 08:08:31;;;;;;;4.92;4.45;;;;;;;28.46;45.07;100574.30;1774816;79;21064;-83
2022/08/07 08:11:00;;;;;;;4.83;4.40;;;;;;;28.47;45.04;100566.71;1774975;80;21021;-84
2022/08/07 08:13:27;;;;;;;4.95;4.45;;;;;;;28.46;45.07;100567.89;1774051;80;21424;-84
2022/08/07 08:15:54;;;;;;;5.28;4.58;;;;;;;28.47;45.06;100572.30;1774901;79;21153;-84
2022/08/07 08:18:22;;;;;;;5.80;4.30;;;;;;;28.47;45.07;100569.51;1774465;79;21028;-84
2022/08/07 08:20:48;;;;;;;4.87;4.47;;;;;;;28.47;45.06;100563.32;1774493;80;21098;-83
2022/08/07 08:28:52;;;;;;;7.05;4.65;;;;;;;28.48;45.04;100572.50;1774848;80;21096;-84
2022/08/07 08:31:25;;;;;;;4.60;4.12;;;;;;;28.48;45.03;100568.30;1774354;80;21052;-83
2022/08/07 08:33:53;;;;;;;4.53;4.12;;;;;;;28.47;45.04;100574.52;1774313;80;21040;-84
2022/08/07 08:36:22;;;;;;;4.67;4.28;;;;;;;28.48;45.04;100571.09;1774521;79;21040;-84
2022/08/07 08:38:49;;;;;;;4.03;3.60;;;;;;;28.49;45.06;100576.92;1774514;80;21333;-84
2022/08/07 08:41:39;;;;;;;5.17;4.30;;;;;;;28.48;45.05;100571.91;1774886;80;21471;-83
2022/08/07 08:44:28;;;;;;;4.42;4.03;;;;;;;28.49;45.05;100572.72;1774722;80;21040;-83
2022/08/07 08:46:59;;;;;;;4.67;4.28;;;;;;;28.49;45.04;100577.73;1760156;80;21115;-83
2022/08/07 08:49:43;;;;;;;4.65;4.25;;;;;;;28.49;45.00;100576.92;1773815;80;21542;-84
2022/08/07 08:52:26;;;;;;;4.55;3.75;;;;;;;28.49;45.02;100576.92;1774750;80;21088;-84
2022/08/07 08:55:05;;;;;;;4.70;4.20;;;;;;;28.50;45.02;100574.34;1774520;80;21085;-84
2022/08/07 08:57:43;;;;;;;4.40;4.00;;;;;;;28.49;45.01;100576.92;1774958;80;20957;-84
2022/08/07 09:00:11;;;;;;;5.22;4.37;;;;;;;28.49;45.03;100572.72;1774531;80;21105;-84
2022/08/07 09:03:02;;;;;;;6.28;4.25;;;;;;;28.49;45.02;100570.73;1774594;80;22188;-84
2022/08/07 09:05:49;;;;;;;6.22;4.67;;;;;;;28.49;45.04;100567.93;1774516;79;21052;-84
2022/08/07 09:08:33;;;;;;;7.53;4.08;;;;;;;28.49;45.07;100567.13;1774528;79;21056;-84
2022/08/07 09:11:25;;;;;;;4.78;4.28;;;;;;;28.49;45.06;100562.34;1774471;80;21048;-84
2022/08/07 09:14:08;;;;;;;4.92;4.37;;;;;;;28.49;45.05;100565.13;1774312;80;21439;-84
2022/08/07 09:17:10;;;;;;;4.75;4.10;;;;;;;28.49;45.06;100568.52;1774441;80;21601;-84
2022/08/07 09:19:51;;;;;;;4.62;4.20;;;;;;;28.49;45.05;100558.14;1773331;80;21020;-84
2022/08/07 09:22:39;;;;;;;5.17;4.10;;;;;;;28.49;45.05;100567.93;1774331;80;22017;-84
2022/08/07 09:25:12;;;;;;;5.00;4.50;;;;;;;28.49;45.07;100568.52;1774592;80;21510;-83
2022/08/07 09:28:04;;;;;;;4.58;4.17;;;;;;;28.48;45.07;100555.70;1774469;80;21020;-83
2022/08/07 09:30:57;;;;;;;4.87;3.83;;;;;;;28.49;45.07;100557.33;1774736;79;21533;-84
2022/08/07 09:34:07;;;;;;;4.60;4.20;;;;;;;28.49;45.09;100549.74;1758807;79;21023;-84
2022/08/07 09:36:41;;;;;;;4.78;4.28;;;;;;;28.49;45.08;100548.93;1740149;81;21964;-84
2022/08/07 09:39:48;;;;;;;4.92;4.42;;;;;;;28.48;45.07;100541.13;1739024;81;21008;-83
2022/08/07 09:42:39;;;;;;;4.87;4.40;;;;;;;28.48;45.09;100543.11;1712755;82;21154;-84
2022/08/07 09:45:48;;;;;;;7.87;4.97;;;;;;;28.48;45.11;100541.13;1729905;81;21021;-83
2022/08/07 09:48:36;;;;;;;4.65;4.22;;;;;;;28.48;45.10;100541.71;1736500;80;21041;-84
2022/08/07 09:51:20;;;;;;;5.12;4.55;;;;;;;28.47;45.10;100540.93;1775995;80;21470;-84
2022/08/07 09:53:46;;;;;;;4.90;4.50;;;;;;;28.47;45.10;100538.72;1776210;79;21465;-84
2022/08/07 09:56:39;;;;;;;4.70;4.17;;;;;;;28.47;45.13;100549.33;1776134;79;21022;-84
2022/08/07 09:59:14;;;;;;;4.60;4.12;;;;;;;28.48;45.12;100542.52;1776499;79;21114;-84
2022/08/07 10:02:25;;;;;;;4.70;4.20;;;;;;;28.48;45.12;100536.11;1774736;80;21046;-84
2022/08/07 10:05:09;;;;;;;5.20;4.70;;;;;;;28.47;45.12;100539.53;1776323;79;21157;-83
2022/08/07 10:08:26;;;;;;;4.60;4.08;;;;;;;28.47;45.10;100533.13;1775065;79;21486;-84
2022/08/07 10:11:06;;;;;;;5.03;4.17;;;;;;;28.48;45.08;100539.72;1782297;79;21079;-83
2022/08/07 10:13:41;;;;;;;5.08;4.55;;;;;;;28.48;45.07;100531.33;1785571;80;21535;-84
2022/08/07 10:16:37;;;;;;;5.70;4.20;;;;;;;28.48;45.09;100531.92;1786096;78;21084;-84
2022/08/07 10:19:30;;;;;;;5.15;4.65;;;;;;;28.47;45.08;100539.53;1785884;80;21368;-84
2022/08/07 10:22:39;;;;;;;4.65;4.15;;;;;;;28.47;45.08;100533.94;1786125;80;21060;-84
2022/08/07 10:25:26;;;;;;;5.33;4.20;;;;;;;28.48;45.08;100533.31;1747252;82;21116;-84
2022/08/07 10:28:10;;;;;;;4.70;4.20;;;;;;;28.48;45.07;100536.11;1737238;80;21005;-84
2022/08/07 10:30:54;;;;;;;4.72;4.30;;;;;;;28.48;45.07;100534.72;1784687;80;21036;-84
2022/08/07 10:33:45;;;;;;;5.28;4.50;;;;;;;28.49;45.06;100534.94;1785706;80;21933;-83
2022/08/07 10:36:37;;;;;;;5.28;4.50;;;;;;;28.49;45.07;100532.95;1777481;78;20985;-83
2022/08/07 10:39:28;;;;;;;6.58;4.70;;;;;;;28.49;45.05;100544.73;1775007;79;20993;-83
2022/08/07 10:42:12;;;;;;;5.08;4.58;;;;;;;28.48;45.05;100528.53;1774049;80;21039;-84
2022/08/07 10:44:44;;;;;;;5.83;4.85;;;;;;;28.48;45.03;100527.13;1774294;80;21026;-84
2022/08/07 10:47:42;;;;;;;5.03;4.42;;;;;;;28.49;45.01;100531.55;1740574;80;21132;-84
2022/08/07 10:50:22;;;;;;;7.08;4.75;;;;;;;28.49;45.01;100521.75;1744043;80;21057;-83
2022/08/07 10:52:59;;;;;;;4.65;4.15;;;;;;;28.49;45.00;100520.36;1743088;82;20994;-84
2022/08/07 10:55:30;;;;;;;5.00;4.50;;;;;;;28.49;45.00;100526.55;1743801;80;21626;-83
2022/08/07 10:58:24;;;;;;;5.22;4.22;;;;;;;28.49;44.99;100521.75;1743130;82;21028;-84
2022/08/07 11:01:30;;;;;;;5.00;4.50;;;;;;;28.50;44.99;100528.16;1743314;80;21591;-84
2022/08/07 11:04:02;;;;;;;6.25;4.65;;;;;;;28.50;44.95;100524.77;1742848;80;21301;-83
2022/08/07 11:06:49;;;;;;;5.15;4.65;;;;;;;28.49;44.94;100518.95;1744272;81;21040;-83
2022/08/07 11:09:27;;;;;;;4.70;4.30;;;;;;;28.50;44.93;100515.57;1743578;82;21021;-83
2022/08/07 11:12:28;;;;;;;6.70;4.53;;;;;;;28.50;44.92;100512.77;1744126;80;21121;-84
2022/08/07 11:15:05;;;;;;;5.50;4.60;;;;;;;28.50;44.88;100509.97;1623279;86;21919;-83
2022/08/07 11:17:55;;;;;;;4.92;4.50;;;;;;;28.50;44.86;100518.37;1663500;84;21068;-83
2022/08/07 11:20:25;;;;;;;4.75;4.35;;;;;;;28.49;44.83;100514.76;1681111;84;21052;-84
2022/08/07 11:23:09;;;;;;;5.40;4.83;;;;;;;28.50;44.82;100505.77;1681543;84;21087;-82
2022/08/07 11:25:40;;;;;;;6.92;4.35;;;;;;;28.51;44.81;100508.80;1681486;84;21040;-84
2022/08/07 11:28:17;;;;;;;4.90;4.50;;;;;;;28.50;44.77;100504.38;1681500;85;21156;-84
2022/08/07 11:31:06;;;;;;;5.17;4.67;;;;;;;28.50;44.77;100503.78;1681173;84;21004;-84
2022/08/07 11:33:52;;;;;;;6.33;4.90;;;;;;;28.50;44.76;100506.58;1732320;82;21104;-84
2022/08/07 11:37:02;;;;;;;4.72;3.98;;;;;;;28.51;44.70;100504.01;1751636;81;21080;-84
2022/08/07 11:40:09;;;;;;;4.90;4.40;;;;;;;28.51;44.67;100495.61;1770595;80;21045;-84
2022/08/07 11:43:18;;;;;;;6.55;4.92;;;;;;;28.51;44.62;100490.60;1770362;81;21165;-84
2022/08/07 11:46:26;;;;;;;5.10;4.60;;;;;;;28.51;44.60;100504.01;1770488;81;21029;-84
2022/08/07 11:49:25;;;;;;;6.20;4.53;;;;;;;28.50;44.60;100498.19;1769808;80;21525;-84
2022/08/07 11:52:27;;;;;;;4.83;4.33;;;;;;;28.51;44.57;100486.41;1770101;79;21093;-83
2022/08/07 11:55:01;;;;;;;5.87;4.80;;;;;;;28.50;44.55;100490.38;1736653;81;21540;-83
2022/08/07 11:57:42;;;;;;;5.10;4.60;;;;;;;28.50;44.54;100491.19;1770280;81;21499;-83
2022/08/07 12:00:34;;;;;;;4.65;4.10;;;;;;;28.49;44.54;100486.77;1772094;79;21546;-84